createdAt,value
2023-02-15T00:01:58.801Z,3.31
2023-02-15T00:04:46.829Z,3.31
2023-02-15T00:07:15.980Z,3.31
2023-02-15T00:09:43.013Z,3.32
2023-02-15T00:12:10.989Z,3.31
2023-02-15T00:14:37.739Z,3.30
2023-02-15T00:17:04.484Z,3.28
2023-02-15T00:19:31.167Z,3.28
2023-02-15T00:21:58.132Z,3.26
2023-02-15T00:24:24.841Z,3.26
2023-02-15T00:26:51.737Z,3.25
2023-02-15T00:29:19.831Z,3.26
2023-02-15T00:31:47.159Z,3.22
2023-02-15T00:34:17.303Z,3.22
2023-02-15T00:36:44.772Z,3.18
2023-02-15T00:39:12.595Z,3.17
2023-02-15T00:41:39.420Z,3.17
2023-02-15T00:44:06.805Z,3.16
2023-02-15T00:46:33.776Z,3.16
2023-02-15T00:49:00.506Z,3.16
2023-02-15T00:51:27.853Z,3.15
2023-02-15T00:53:54.788Z,3.15
2023-02-15T00:56:21.695Z,3.15
2023-02-15T00:58:48.522Z,3.15
2023-02-15T01:01:21.330Z,3.16
2023-02-15T01:03:48.771Z,3.15
2023-02-15T01:06:17.286Z,3.16
2023-02-15T01:08:45.741Z,3.15
2023-02-15T01:11:15.257Z,3.16
2023-02-15T01:13:42.598Z,3.16
2023-02-15T01:16:09.425Z,3.17
2023-02-15T01:18:36.942Z,3.18
2023-02-15T01:21:19.818Z,3.21
2023-02-15T01:23:47.179Z,3.20
2023-02-15T01:26:14.640Z,3.18
2023-02-15T01:28:41.348Z,3.17
2023-02-15T01:31:13.760Z,3.17
2023-02-15T01:33:40.484Z,3.17
2023-02-15T01:36:07.433Z,3.19
2023-02-15T01:38:35.635Z,3.19
2023-02-15T01:41:21.094Z,3.19
2023-02-15T01:43:53.173Z,3.19
2023-02-15T01:46:24.004Z,3.19
2023-02-15T01:48:59.497Z,3.16
2023-02-15T01:51:30.583Z,3.16
2023-02-15T01:54:07.684Z,3.16
2023-02-15T01:56:36.990Z,3.17
2023-02-15T01:59:08.980Z,3.17
2023-02-15T02:01:36.326Z,3.18
2023-02-15T02:04:11.471Z,3.18
2023-02-15T02:06:40.050Z,3.17
2023-02-15T02:09:07.073Z,3.19
2023-02-15T02:11:34.961Z,3.19
2023-02-15T02:14:01.635Z,3.20
2023-02-15T02:17:00.625Z,3.22
2023-02-15T02:19:34.142Z,3.22
2023-02-15T02:22:12.631Z,3.21
2023-02-15T02:25:17.527Z,3.19
2023-02-15T02:28:11.602Z,3.19
2023-02-15T02:30:57.942Z,3.18
2023-02-15T02:33:58.583Z,3.18
2023-02-15T02:36:34.037Z,3.18
2023-02-15T02:39:07.437Z,3.19
2023-02-15T02:41:52.460Z,3.19
2023-02-15T02:44:33.013Z,3.19
2023-02-15T02:47:10.165Z,3.18
2023-02-15T02:49:40.055Z,3.19
2023-02-15T02:52:44.927Z,3.19
2023-02-15T02:55:23.649Z,3.20
2023-02-15T02:58:07.094Z,3.20
2023-02-15T03:00:38.446Z,3.20
2023-02-15T03:03:11.071Z,3.19
2023-02-15T03:05:42.504Z,3.19
2023-02-15T03:08:11.120Z,3.18
2023-02-15T03:10:41.576Z,3.20
2023-02-15T03:13:09.670Z,3.20
2023-02-15T03:15:58.955Z,3.22
2023-02-15T03:18:36.751Z,3.21
2023-02-15T03:21:05.169Z,3.21
2023-02-15T03:23:35.665Z,3.22
2023-02-15T03:26:09.192Z,3.22
2023-02-15T03:28:48.089Z,3.22
2023-02-15T03:31:17.527Z,3.22
2023-02-15T03:33:52.762Z,3.21
2023-02-15T03:36:26.323Z,3.22
2023-02-15T03:39:20.378Z,3.23
2023-02-15T03:42:10.233Z,3.23
2023-02-15T03:45:02.308Z,3.20
2023-02-15T03:47:36.449Z,3.21
2023-02-15T03:50:29.190Z,3.20
2023-02-15T03:52:58.385Z,3.20
2023-02-15T03:55:25.448Z,3.23
2023-02-15T03:58:11.608Z,3.23
2023-02-15T04:01:00.977Z,3.23
2023-02-15T04:03:40.545Z,3.23
2023-02-15T04:06:07.639Z,3.25
2023-02-15T04:09:12.682Z,3.23
2023-02-15T04:11:39.395Z,3.24
2023-02-15T04:14:25.983Z,3.24
2023-02-15T04:16:52.841Z,3.24
2023-02-15T04:19:38.551Z,3.25
2023-02-15T04:22:23.718Z,3.25
2023-02-15T04:25:08.662Z,3.22
2023-02-15T04:27:35.302Z,3.24
2023-02-15T04:30:02.162Z,3.23
2023-02-15T04:32:28.853Z,3.22
2023-02-15T04:34:55.490Z,3.22
2023-02-15T04:37:22.172Z,3.24
2023-02-15T04:39:48.924Z,3.26
2023-02-15T04:42:15.594Z,3.27
2023-02-15T04:44:42.391Z,3.27
2023-02-15T04:47:09.305Z,3.29
2023-02-15T04:49:36.059Z,3.32
2023-02-15T04:52:02.757Z,3.33
2023-02-15T04:54:29.422Z,3.32
2023-02-15T04:56:56.097Z,3.32
2023-02-15T04:59:22.778Z,3.35
2023-02-15T05:01:49.622Z,3.34
2023-02-15T05:04:16.380Z,3.35
2023-02-15T05:06:43.061Z,3.33
2023-02-15T05:09:09.736Z,3.36
2023-02-15T05:11:36.411Z,3.34
2023-02-15T05:14:03.117Z,3.33
2023-02-15T05:16:29.897Z,3.35
2023-02-15T05:18:56.678Z,3.35
2023-02-15T05:21:23.847Z,3.37
2023-02-15T05:23:50.563Z,3.36
2023-02-15T05:26:39.062Z,3.35
2023-02-15T05:29:06.329Z,3.35
2023-02-15T05:31:34.212Z,3.34
2023-02-15T05:34:01.057Z,3.36
2023-02-15T05:36:27.796Z,3.36
2023-02-15T05:38:54.442Z,3.38
2023-02-15T05:41:21.146Z,3.42
2023-02-15T05:43:48.068Z,3.43
2023-02-15T05:46:14.787Z,3.44
2023-02-15T05:48:41.572Z,3.42
2023-02-15T05:51:14.045Z,3.45
2023-02-15T05:53:41.794Z,3.50
2023-02-15T05:56:10.100Z,3.51
2023-02-15T05:58:39.637Z,3.51
2023-02-15T06:01:18.353Z,3.54
2023-02-15T06:03:46.366Z,3.56
2023-02-15T06:06:13.404Z,3.60
2023-02-15T06:08:40.349Z,3.62
2023-02-15T06:11:07.311Z,3.60
2023-02-15T06:13:37.229Z,3.61
2023-02-15T06:16:05.881Z,3.62
2023-02-15T06:18:32.711Z,3.62
2023-02-15T06:20:59.370Z,3.62
2023-02-15T06:23:26.028Z,3.65
2023-02-15T06:25:52.745Z,3.67
2023-02-15T06:28:19.636Z,3.67
2023-02-15T06:30:46.299Z,3.64
2023-02-15T06:33:13.033Z,3.65
2023-02-15T06:35:39.758Z,3.64
2023-02-15T06:38:06.430Z,3.64
2023-02-15T06:40:33.114Z,3.66
2023-02-15T06:42:59.808Z,3.66
2023-02-15T06:45:26.486Z,3.68
2023-02-15T06:47:53.156Z,3.69
2023-02-15T06:50:19.889Z,3.72
2023-02-15T06:52:46.578Z,3.72
2023-02-15T06:55:13.228Z,3.72
2023-02-15T06:57:39.882Z,3.73
2023-02-15T07:00:07.166Z,3.73
2023-02-15T07:02:34.281Z,3.73
2023-02-15T07:05:01.013Z,3.72
2023-02-15T07:07:27.742Z,3.72
2023-02-15T07:09:54.389Z,3.73
2023-02-15T07:12:39.831Z,3.73
2023-02-15T07:15:07.446Z,3.65
2023-02-15T07:17:36.247Z,3.64
2023-02-15T07:20:06.392Z,3.65
2023-02-15T07:22:35.156Z,3.67
2023-02-15T07:25:02.009Z,3.65
2023-02-15T07:27:28.857Z,3.66
2023-02-15T07:29:55.589Z,3.68
2023-02-15T07:32:22.285Z,3.69
2023-02-15T07:34:48.979Z,3.72
2023-02-15T07:37:15.820Z,3.73
2023-02-15T07:39:42.489Z,3.74
2023-02-15T07:42:09.166Z,3.75
2023-02-15T07:44:35.799Z,3.75
2023-02-15T07:47:02.464Z,3.76
2023-02-15T07:49:29.269Z,3.78
2023-02-15T07:51:55.928Z,3.79
2023-02-15T07:54:22.633Z,3.78
2023-02-15T07:56:49.382Z,3.76
2023-02-15T07:59:16.102Z,3.79
2023-02-15T08:01:42.880Z,3.82
2023-02-15T08:04:12.022Z,3.82
2023-02-15T08:06:39.367Z,3.82
2023-02-15T08:09:09.881Z,3.81
2023-02-15T08:11:38.440Z,3.80
2023-02-15T08:14:07.887Z,3.78
2023-02-15T08:16:45.053Z,3.76
2023-02-15T08:19:18.753Z,3.76
2023-02-15T08:21:48.970Z,3.78
2023-02-15T08:24:17.421Z,3.78
2023-02-15T08:26:46.196Z,3.76
2023-02-15T08:29:13.086Z,3.77
2023-02-15T08:31:42.090Z,3.78
2023-02-15T08:34:15.054Z,3.73
2023-02-15T08:36:42.352Z,3.74
2023-02-15T08:39:09.142Z,3.75
2023-02-15T08:41:37.578Z,3.79
2023-02-15T08:44:07.733Z,3.78
2023-02-15T08:46:36.962Z,3.74
2023-02-15T08:49:04.429Z,3.72
2023-02-15T08:51:33.657Z,3.74
2023-02-15T08:54:04.486Z,3.75
2023-02-15T08:56:34.421Z,3.75
2023-02-15T08:59:01.338Z,3.76
2023-02-15T09:01:33.815Z,3.78
2023-02-15T09:04:05.251Z,3.73
2023-02-15T09:06:32.912Z,3.74
2023-02-15T09:08:59.641Z,3.76
2023-02-15T09:11:28.912Z,3.76
2023-02-15T09:14:01.040Z,3.75
2023-02-15T09:16:30.874Z,3.80
2023-02-15T09:19:02.139Z,3.83
2023-02-15T09:21:29.824Z,3.86
2023-02-15T09:24:00.651Z,3.87
2023-02-15T09:26:29.691Z,3.89
2023-02-15T09:28:59.867Z,3.89
2023-02-15T09:31:29.066Z,3.89
2023-02-15T09:33:56.069Z,3.91
2023-02-15T09:36:28.320Z,3.91
2023-02-15T09:39:19.857Z,3.86
2023-02-15T09:42:22.728Z,3.84
2023-02-15T09:45:18.638Z,3.84
2023-02-15T09:47:48.602Z,3.84
2023-02-15T09:50:52.512Z,3.86
2023-02-15T09:53:24.799Z,3.90
2023-02-15T09:56:21.036Z,3.92
2023-02-15T09:59:15.439Z,3.93
2023-02-15T10:02:09.987Z,3.95
2023-02-15T10:05:12.352Z,3.93
2023-02-15T10:07:44.966Z,3.94
2023-02-15T10:10:24.381Z,3.94
2023-02-15T10:13:08.901Z,3.97
2023-02-15T10:16:00.553Z,3.97
2023-02-15T10:18:57.349Z,3.98
2023-02-15T10:21:40.399Z,3.97
2023-02-15T10:24:10.103Z,3.98
2023-02-15T10:26:48.022Z,3.97
2023-02-15T10:29:18.513Z,3.97
2023-02-15T10:31:54.278Z,3.98
2023-02-15T10:34:59.534Z,3.97
2023-02-15T10:37:45.163Z,3.99
2023-02-15T10:40:34.799Z,3.99
2023-02-15T10:43:15.406Z,4.00
2023-02-15T10:46:27.024Z,4.01
2023-02-15T10:48:59.822Z,3.97
2023-02-15T10:51:49.702Z,3.95
2023-02-15T10:54:47.481Z,3.95
2023-02-15T10:57:30.146Z,3.95
2023-02-15T11:00:23.791Z,3.95
2023-02-15T11:03:15.130Z,3.97
2023-02-15T11:05:58.824Z,3.97
2023-02-15T11:08:29.035Z,3.98
2023-02-15T11:11:03.078Z,3.99
2023-02-15T11:13:39.870Z,4.00
2023-02-15T11:16:14.153Z,4.00
2023-02-15T11:18:47.009Z,4.03
2023-02-15T11:21:33.595Z,4.04
2023-02-15T11:24:01.915Z,4.04
2023-02-15T11:26:35.567Z,4.04
2023-02-15T11:29:14.691Z,4.07
2023-02-15T11:31:47.219Z,4.08
2023-02-15T11:34:39.108Z,4.08
2023-02-15T11:37:16.790Z,4.10
2023-02-15T11:39:44.405Z,4.11
2023-02-15T11:42:16.501Z,4.12
2023-02-15T11:44:57.791Z,4.12
2023-02-15T11:47:24.514Z,4.14
2023-02-15T11:49:51.326Z,4.15
2023-02-15T11:52:19.596Z,4.15
2023-02-15T11:54:51.143Z,4.15
2023-02-15T11:57:38.997Z,4.14
2023-02-15T12:00:12.455Z,4.13
2023-02-15T12:02:43.621Z,4.12
2023-02-15T12:05:17.286Z,4.10
2023-02-15T12:08:04.997Z,4.09
2023-02-15T12:10:43.973Z,4.05
2023-02-15T12:13:16.377Z,4.04
2023-02-15T12:15:55.502Z,4.03
2023-02-15T12:18:37.277Z,4.00
2023-02-15T12:21:15.571Z,4.00
2023-02-15T12:23:49.378Z,3.98
2023-02-15T12:26:24.151Z,3.97
2023-02-15T12:28:53.048Z,3.98
2023-02-15T12:31:24.504Z,3.99
2023-02-15T12:33:59.176Z,3.99
2023-02-15T12:36:33.150Z,3.99
2023-02-15T12:39:21.728Z,4.00
2023-02-15T12:42:00.505Z,3.99
2023-02-15T12:44:38.290Z,3.97
2023-02-15T12:47:28.966Z,3.97
2023-02-15T12:50:34.718Z,3.93
2023-02-15T12:53:26.292Z,3.89
2023-02-15T12:56:12.285Z,3.87
2023-02-15T12:58:42.922Z,3.83
2023-02-15T13:01:16.978Z,3.83
2023-02-15T13:04:04.316Z,3.79
2023-02-15T13:06:36.644Z,3.76
2023-02-15T13:09:31.027Z,3.78
2023-02-15T13:12:09.945Z,3.77
2023-02-15T13:14:37.369Z,3.77
2023-02-15T13:17:08.471Z,3.74
2023-02-15T13:19:44.489Z,3.73
2023-02-15T13:22:18.605Z,3.72
2023-02-15T13:24:54.894Z,3.72
2023-02-15T13:27:25.654Z,3.74
2023-02-15T13:29:59.703Z,3.72
2023-02-15T13:32:33.893Z,3.71
2023-02-15T13:35:06.107Z,3.71
2023-02-15T13:38:00.879Z,3.73
2023-02-15T13:40:52.239Z,3.73
2023-02-15T13:43:21.899Z,3.74
2023-02-15T13:46:08.814Z,3.74
2023-02-15T13:48:52.982Z,3.74
2023-02-15T13:51:19.608Z,3.72
2023-02-15T13:54:23.685Z,3.70
2023-02-15T13:57:12.434Z,3.69
2023-02-15T13:59:57.426Z,3.68
2023-02-15T14:03:03.890Z,3.65
2023-02-15T14:05:35.821Z,3.64
2023-02-15T14:08:11.409Z,3.60
2023-02-15T14:10:43.767Z,3.62
2023-02-15T14:13:52.643Z,3.61
2023-02-15T14:16:35.450Z,3.59
2023-02-15T14:19:21.658Z,3.58
2023-02-15T14:21:55.753Z,3.58
2023-02-15T14:24:40.589Z,3.58
2023-02-15T14:27:47.661Z,3.58
2023-02-15T14:30:47.393Z,3.56
2023-02-15T14:33:39.485Z,3.54
2023-02-15T14:36:09.088Z,3.52
2023-02-15T14:38:47.717Z,3.55
2023-02-15T14:41:45.481Z,3.56
2023-02-15T14:44:46.968Z,3.56
2023-02-15T14:47:27.067Z,3.54
2023-02-15T14:49:53.742Z,3.54
2023-02-15T14:52:20.698Z,3.54
2023-02-15T14:54:47.326Z,3.53
2023-02-15T14:57:13.922Z,3.52
2023-02-15T15:00:01.466Z,3.50
2023-02-15T15:02:40.068Z,3.47
2023-02-15T15:05:21.181Z,3.45
2023-02-15T15:07:47.906Z,3.43
2023-02-15T15:10:17.178Z,3.43
2023-02-15T15:12:46.952Z,3.41
2023-02-15T15:15:29.606Z,3.39
2023-02-15T15:18:07.552Z,3.37
2023-02-15T15:20:52.355Z,3.34
2023-02-15T15:23:19.094Z,3.32
2023-02-15T15:26:12.626Z,3.28
2023-02-15T15:28:39.254Z,3.22
2023-02-15T15:31:26.037Z,3.19
2023-02-15T15:34:04.993Z,3.18
2023-02-15T15:36:53.153Z,3.19
2023-02-15T15:40:05.413Z,3.17
2023-02-15T15:42:53.022Z,3.18
2023-02-15T15:45:34.737Z,3.19
2023-02-15T15:48:19.480Z,3.20
2023-02-15T15:50:48.724Z,3.16
2023-02-15T15:53:23.354Z,3.14
2023-02-15T15:55:56.611Z,3.13
2023-02-15T15:58:25.001Z,3.13
2023-02-15T16:01:06.554Z,3.09
2023-02-15T16:03:33.288Z,3.07
2023-02-15T16:06:01.904Z,3.03
2023-02-15T16:08:38.090Z,3.03
2023-02-15T16:11:23.613Z,3.00
2023-02-15T16:13:50.714Z,3.00
2023-02-15T16:16:29.531Z,2.99
2023-02-15T16:19:00.727Z,2.98
2023-02-15T16:21:34.664Z,2.97
2023-02-15T16:24:26.010Z,2.96
2023-02-15T16:27:05.611Z,2.92
2023-02-15T16:29:34.316Z,2.88
2023-02-15T16:32:19.479Z,2.84
2023-02-15T16:34:58.736Z,2.81
2023-02-15T16:37:28.405Z,2.81
2023-02-15T16:39:56.646Z,2.82
2023-02-15T16:42:23.926Z,2.81
2023-02-15T16:45:15.605Z,2.81
2023-02-15T16:47:45.796Z,2.80
2023-02-15T16:50:21.811Z,2.80
2023-02-15T16:52:48.866Z,2.79
2023-02-15T16:55:23.877Z,2.75
2023-02-15T16:57:51.865Z,2.73
2023-02-15T17:00:25.941Z,2.71
2023-02-15T17:03:04.749Z,2.72
2023-02-15T17:05:40.565Z,2.70
2023-02-15T17:08:13.306Z,2.66
2023-02-15T17:10:45.960Z,2.65
2023-02-15T17:13:18.980Z,2.64
2023-02-15T17:16:05.829Z,2.63
2023-02-15T17:18:39.497Z,2.63
2023-02-15T17:21:26.871Z,2.63
2023-02-15T17:24:01.183Z,2.60
2023-02-15T17:26:37.963Z,2.57
2023-02-15T17:29:37.609Z,2.56
2023-02-15T17:32:06.295Z,2.54
2023-02-15T17:34:59.139Z,2.53
2023-02-15T17:38:01.219Z,2.53
2023-02-15T17:40:33.748Z,2.51
2023-02-15T17:43:00.559Z,2.49
2023-02-15T17:45:43.861Z,2.47
2023-02-15T17:48:34.700Z,2.48
2023-02-15T17:51:02.960Z,2.49
2023-02-15T17:53:30.110Z,2.49
2023-02-15T17:55:57.003Z,2.47
2023-02-15T17:58:23.915Z,2.47
2023-02-15T18:01:12.161Z,2.46
2023-02-15T18:04:09.149Z,2.44
2023-02-15T18:06:56.538Z,2.44
2023-02-15T18:09:42.661Z,2.41
2023-02-15T18:12:21.166Z,2.38
2023-02-15T18:14:48.000Z,2.36
2023-02-15T18:17:16.263Z,2.36
2023-02-15T18:19:44.906Z,2.37
2023-02-15T18:22:14.377Z,2.37
2023-02-15T18:24:41.496Z,2.37
2023-02-15T18:27:08.249Z,2.36
2023-02-15T18:29:34.902Z,2.33
2023-02-15T18:32:01.864Z,2.31
2023-02-15T18:34:32.527Z,2.31
2023-02-15T18:37:02.400Z,2.30
2023-02-15T18:39:31.986Z,2.30
2023-02-15T18:41:58.970Z,2.28
2023-02-15T18:44:26.534Z,2.26
2023-02-15T18:46:53.193Z,2.26
2023-02-15T18:49:19.961Z,2.25
2023-02-15T18:51:46.694Z,2.22
2023-02-15T18:54:31.647Z,2.22
2023-02-15T18:57:00.740Z,2.23
2023-02-15T18:59:30.466Z,2.23
2023-02-15T19:01:58.012Z,2.25
2023-02-15T19:04:25.869Z,2.27
2023-02-15T19:06:52.975Z,2.28
2023-02-15T19:09:22.562Z,2.30
2023-02-15T19:11:54.806Z,2.28
2023-02-15T19:14:29.725Z,2.26
2023-02-15T19:16:57.911Z,2.23
2023-02-15T19:19:24.693Z,2.21
2023-02-15T19:21:52.341Z,2.22
2023-02-15T19:24:28.290Z,2.21
2023-02-15T19:26:55.015Z,2.21
2023-02-15T19:29:27.977Z,2.19
2023-02-15T19:31:54.807Z,2.19
2023-02-15T19:34:21.761Z,2.18
2023-02-15T19:36:51.640Z,2.18
2023-02-15T19:39:30.750Z,2.20
2023-02-15T19:41:57.505Z,2.20
2023-02-15T19:44:24.630Z,2.19
2023-02-15T19:46:51.352Z,2.17
2023-02-15T19:49:18.177Z,2.18
2023-02-15T19:51:44.964Z,2.17
2023-02-15T19:54:18.958Z,2.18
2023-02-15T19:56:45.638Z,2.18
2023-02-15T19:59:33.071Z,2.20
2023-02-15T20:02:00.236Z,2.22
2023-02-15T20:04:27.360Z,2.24
2023-02-15T20:06:56.373Z,2.24
2023-02-15T20:09:33.861Z,2.27
2023-02-15T20:12:00.538Z,2.27
2023-02-15T20:14:27.824Z,2.25
2023-02-15T20:16:54.458Z,2.25
2023-02-15T20:19:21.163Z,2.25
2023-02-15T20:21:54.661Z,2.28
2023-02-15T20:24:22.713Z,2.27
2023-02-15T20:26:49.565Z,2.27
2023-02-15T20:29:18.864Z,2.27
2023-02-15T20:31:46.238Z,2.26
2023-02-15T20:34:13.109Z,2.26
2023-02-15T20:36:40.545Z,2.25
2023-02-15T20:39:20.592Z,2.23
2023-02-15T20:41:47.966Z,2.19
2023-02-15T20:44:14.730Z,2.18
2023-02-15T20:46:41.461Z,2.16
2023-02-15T20:49:08.184Z,2.15
2023-02-15T20:51:36.339Z,2.13
2023-02-15T20:54:11.667Z,2.12
2023-02-15T20:56:38.363Z,2.09
2023-02-15T20:59:19.203Z,2.07
2023-02-15T21:01:45.928Z,2.06
2023-02-15T21:04:18.762Z,2.05
2023-02-15T21:06:45.813Z,2.05
2023-02-15T21:09:14.578Z,2.05
2023-02-15T21:11:41.602Z,2.06
2023-02-15T21:14:21.376Z,2.05
2023-02-15T21:16:49.360Z,2.04
2023-02-15T21:19:19.781Z,2.02
2023-02-15T21:21:48.296Z,2.02
2023-02-15T21:24:19.309Z,2.01
2023-02-15T21:26:47.124Z,2.00
2023-02-15T21:29:28.300Z,1.99
2023-02-15T21:31:55.527Z,1.99
2023-02-15T21:34:22.461Z,1.98
2023-02-15T21:36:50.843Z,1.99
2023-02-15T21:39:28.519Z,2.00
2023-02-15T21:42:16.672Z,2.00
2023-02-15T21:45:01.900Z,2.02
2023-02-15T21:47:50.580Z,2.00
2023-02-15T21:50:39.121Z,2.00
2023-02-15T21:53:09.793Z,2.01
2023-02-15T21:55:36.742Z,2.01
2023-02-15T21:58:03.615Z,2.03
2023-02-15T22:00:31.134Z,2.02
2023-02-15T22:02:59.692Z,2.01
2023-02-15T22:05:31.809Z,2.01
2023-02-15T22:07:59.026Z,2.00
2023-02-15T22:10:30.488Z,1.98
2023-02-15T22:12:59.616Z,1.96
2023-02-15T22:15:33.362Z,1.96
2023-02-15T22:18:00.027Z,1.95
2023-02-15T22:20:26.690Z,1.95
2023-02-15T22:22:53.892Z,1.94
2023-02-15T22:25:23.354Z,1.95
2023-02-15T22:27:51.846Z,1.93
2023-02-15T22:30:25.410Z,1.92
2023-02-15T22:32:53.493Z,1.91
2023-02-15T22:35:31.948Z,1.91
2023-02-15T22:37:59.152Z,1.90
2023-02-15T22:40:36.866Z,1.89
2023-02-15T22:43:05.747Z,1.89
2023-02-15T22:45:35.724Z,1.89
2023-02-15T22:48:02.755Z,1.92
2023-02-15T22:50:32.313Z,1.89
2023-02-15T22:53:03.483Z,1.89
2023-02-15T22:55:33.697Z,1.90
2023-02-15T22:58:01.678Z,1.90
2023-02-15T23:00:31.987Z,1.89
2023-02-15T23:02:58.676Z,1.90
2023-02-15T23:05:28.825Z,1.89
2023-02-15T23:07:56.249Z,1.89
2023-02-15T23:10:26.058Z,1.89
2023-02-15T23:13:11.305Z,1.89
2023-02-15T23:15:38.420Z,1.88
2023-02-15T23:18:23.845Z,1.88
2023-02-15T23:21:02.370Z,1.86
2023-02-15T23:23:38.346Z,1.86
2023-02-15T23:26:11.172Z,1.85
2023-02-15T23:28:38.518Z,1.87
2023-02-15T23:31:20.954Z,1.88
2023-02-15T23:33:49.131Z,1.88
2023-02-15T23:36:25.381Z,1.90
2023-02-15T23:38:53.331Z,1.91
2023-02-15T23:41:25.194Z,1.92
2023-02-15T23:44:03.948Z,1.94
2023-02-15T23:46:40.381Z,1.95
2023-02-15T23:49:15.061Z,1.95
2023-02-15T23:51:47.574Z,1.97
2023-02-15T23:54:15.936Z,1.97
2023-02-15T23:56:44.539Z,1.97
2023-02-15T23:59:19.458Z,1.97
